Time;durP1;ratioP1;P1;durP2;ratioP2;P2;SDS_P1;SDS_P2;PMS_P1;PMS_P2;Temp;Humidity;BMP_temperature;BMP_pressure;BME280_temperature;BME280_humidity;BME280_pressure;Samples;Min_cycle;Max_cycle;Signal;HPM_P1;HPM_P2
2022/05/14 00:00:58;;;;;;;10.18;9.05;;;19.30;99.90;;;;;;5033373;28;20025;-89
2022/05/14 00:03:25;;;;;;;10.32;9.32;;;19.00;99.90;;;;;;5035016;28;20021;-89
2022/05/14 00:05:53;;;;;;;9.70;8.70;;;19.10;99.90;;;;;;5048736;28;20029;-89
2022/05/14 00:08:21;;;;;;;10.45;9.15;;;19.30;99.90;;;;;;5056095;28;20043;-90
2022/05/14 00:13:32;;;;;;;10.48;9.00;;;19.40;99.90;;;;;;5054205;28;20078;-90
2022/05/14 00:15:58;;;;;;;11.57;9.43;;;19.20;99.90;;;;;;5054133;28;20037;-90
2022/05/14 00:18:23;;;;;;;9.30;8.40;;;19.20;99.90;;;;;;5054264;28;20100;-90
2022/05/14 00:20:50;;;;;;;9.75;8.85;;;19.10;99.90;;;;;;5050742;28;20108;-89
2022/05/14 00:23:16;;;;;;;10.45;9.25;;;19.10;99.90;;;;;;5056570;28;20022;-89
2022/05/14 00:25:42;;;;;;;12.13;9.30;;;19.20;99.90;;;;;;5069381;28;20079;-89
2022/05/14 00:28:08;;;;;;;10.57;9.48;;;18.90;99.90;;;;;;5053437;28;20111;-90
2022/05/14 00:30:34;;;;;;;11.00;9.60;;;18.70;99.90;;;;;;5034171;28;20033;-89
2022/05/14 00:33:00;;;;;;;11.20;8.90;;;18.60;99.90;;;;;;5033952;28;20482;-89
2022/05/14 00:35:26;;;;;;;10.45;9.18;;;18.40;99.90;;;;;;5041301;28;20080;-90
2022/05/14 00:37:52;;;;;;;10.70;8.98;;;18.40;99.90;;;;;;5051513;28;20029;-90
2022/05/14 00:40:21;;;;;;;10.98;9.82;;;18.50;99.90;;;;;;5053756;28;20013;-90
2022/05/14 00:42:46;;;;;;;12.50;10.00;;;18.70;99.90;;;;;;5033223;28;20030;-89
2022/05/14 00:45:14;;;;;;;10.98;9.80;;;18.80;99.90;;;;;;5051196;28;20024;-88
2022/05/14 00:47:42;;;;;;;11.43;10.00;;;18.40;99.90;;;;;;5066517;28;20396;-87
2022/05/14 00:50:38;;;;;;;11.00;9.85;;;18.50;99.90;;;;;;5073703;28;20017;-87
2022/05/14 00:53:12;;;;;;;10.75;9.68;;;18.40;99.90;;;;;;5068880;28;20040;-87
2022/05/14 00:55:39;;;;;;;11.70;10.52;;;18.20;99.90;;;;;;5073481;28;20032;-87
2022/05/14 00:58:08;;;;;;;11.20;10.00;;;18.40;99.90;;;;;;5065019;28;20020;-87
2022/05/14 01:00:34;;;;;;;11.88;10.05;;;18.40;99.90;;;;;;5052432;28;20037;-88
2022/05/14 01:03:00;;;;;;;10.75;9.75;;;18.70;99.90;;;;;;5052196;28;20111;-87
2022/05/14 01:05:26;;;;;;;10.88;9.45;;;18.70;99.90;;;;;;5053309;28;20047;-88
2022/05/14 01:07:54;;;;;;;11.77;10.48;;;18.60;99.90;;;;;;5069786;28;20032;-88
2022/05/14 01:10:26;;;;;;;11.45;10.18;;;18.60;99.90;;;;;;5071772;28;20139;-88
2022/05/14 01:12:58;;;;;;;12.05;10.85;;;18.40;99.90;;;;;;5071585;28;20028;-87
2022/05/14 01:15:37;;;;;;;13.02;10.80;;;18.10;99.90;;;;;;5062232;28;20474;-87
2022/05/14 01:18:03;;;;;;;11.90;10.70;;;18.20;99.90;;;;;;5056599;28;20026;-87
2022/05/14 01:20:29;;;;;;;13.45;10.82;;;18.10;99.90;;;;;;5047131;28;20112;-88
2022/05/14 01:23:20;;;;;;;11.00;9.80;;;18.10;99.90;;;;;;5068539;28;20100;-87
2022/05/14 01:26:27;;;;;;;11.90;10.68;;;18.00;99.90;;;;;;5048182;28;20033;-87
2022/05/14 01:29:26;;;;;;;13.20;10.73;;;18.20;99.90;;;;;;5037228;28;20030;-87
2022/05/14 01:31:54;;;;;;;10.73;9.60;;;18.10;99.90;;;;;;5017303;28;20041;-88
2022/05/14 01:34:30;;;;;;;11.60;9.85;;;18.40;99.90;;;;;;5048034;28;20056;-87
2022/05/14 01:36:56;;;;;;;11.68;10.45;;;18.20;99.90;;;;;;5031958;28;20409;-87
2022/05/14 01:39:22;;;;;;;11.43;10.27;;;18.10;99.90;;;;;;5032185;28;20030;-87
2022/05/14 01:41:48;;;;;;;11.48;9.80;;;18.10;99.90;;;;;;5010483;28;20046;-87
2022/05/14 01:44:14;;;;;;;11.73;10.52;;;18.10;99.90;;;;;;5019787;28;20044;-88
2022/05/14 01:46:39;;;;;;;11.77;10.02;;;18.00;99.90;;;;;;5010451;28;20018;-87
2022/05/14 01:49:06;;;;;;;14.23;10.50;;;17.80;99.90;;;;;;5025796;28;20037;-87
2022/05/14 01:51:32;;;;;;;11.65;10.45;;;17.80;99.90;;;;;;5041781;28;20021;-87
2022/05/14 01:53:58;;;;;;;12.38;10.43;;;17.80;99.90;;;;;;5035907;28;20041;-87
2022/05/14 01:56:24;;;;;;;11.68;10.48;;;17.80;99.90;;;;;;5039771;28;20099;-87
2022/05/14 01:58:49;;;;;;;11.85;10.63;;;17.90;99.90;;;;;;5026399;28;20442;-88
2022/05/14 02:01:33;;;;;;;10.88;9.75;;;17.70;99.90;;;;;;5011402;28;20080;-87
2022/05/14 02:04:03;;;;;;;11.27;10.18;;;17.70;99.90;;;;;;5045427;28;20025;-87
2022/05/14 02:06:30;;;;;;;12.60;10.95;;;17.80;99.90;;;;;;5060606;28;20440;-86
2022/05/14 02:08:57;;;;;;;12.75;10.60;;;17.80;99.90;;;;;;5056639;28;20021;-87
2022/05/14 02:11:23;;;;;;;10.88;9.88;;;17.80;99.90;;;;;;5055097;28;20025;-88
2022/05/14 02:13:50;;;;;;;11.15;10.02;;;17.70;99.90;;;;;;5050808;28;20022;-87
2022/05/14 02:16:16;;;;;;;12.23;10.27;;;17.50;99.90;;;;;;5052940;28;20029;-88
2022/05/14 02:18:42;;;;;;;12.13;10.85;;;17.50;99.90;;;;;;5031272;28;20025;-87
2022/05/14 02:21:09;;;;;;;12.40;10.13;;;17.60;99.90;;;;;;5055545;28;20029;-88
2022/05/14 02:23:37;;;;;;;11.55;10.43;;;17.70;99.90;;;;;;5058694;28;20032;-88
2022/05/14 02:26:05;;;;;;;11.32;10.15;;;17.80;99.90;;;;;;5044725;28;20042;-87
2022/05/14 02:28:32;;;;;;;11.45;10.38;;;17.80;99.90;;;;;;5065821;28;20104;-88
2022/05/14 02:30:58;;;;;;;11.45;10.25;;;17.90;99.90;;;;;;5061917;28;20100;-87
2022/05/14 02:33:23;;;;;;;12.02;10.68;;;17.90;99.90;;;;;;5061949;28;20115;-87
2022/05/14 02:35:49;;;;;;;11.82;10.63;;;18.00;99.90;;;;;;5055988;28;20080;-88
2022/05/14 02:38:15;;;;;;;11.50;10.30;;;17.90;99.90;;;;;;5084687;28;20094;-87
2022/05/14 02:40:42;;;;;;;13.13;10.93;;;17.60;99.90;;;;;;5064727;28;20553;-87
2022/05/14 02:43:08;;;;;;;10.90;9.90;;;17.60;99.90;;;;;;5032113;28;20057;-86
2022/05/14 02:45:34;;;;;;;13.68;11.27;;;17.40;99.90;;;;;;5064179;28;20084;-88
2022/05/14 02:48:00;;;;;;;12.70;10.73;;;17.20;99.90;;;;;;5064457;28;20459;-87
2022/05/14 02:50:26;;;;;;;11.88;10.68;;;17.20;99.90;;;;;;5063769;28;20032;-88
2022/05/14 02:52:52;;;;;;;11.88;10.40;;;17.20;99.90;;;;;;5065856;28;20053;-87
2022/05/14 02:55:18;;;;;;;11.98;10.57;;;17.30;99.90;;;;;;5051878;28;20068;-87
2022/05/14 02:57:44;;;;;;;12.10;10.50;;;17.40;99.90;;;;;;5052132;28;20031;-88
2022/05/14 03:00:14;;;;;;;12.63;10.93;;;17.40;99.90;;;;;;5053871;28;20029;-87
2022/05/14 03:02:39;;;;;;;12.40;10.75;;;17.20;99.90;;;;;;5063468;28;20035;-87
2022/05/14 03:05:06;;;;;;;12.38;10.93;;;17.40;99.90;;;;;;5061624;28;20022;-88
2022/05/14 03:07:32;;;;;;;11.60;10.27;;;17.40;99.90;;;;;;5070576;28;20624;-87
2022/05/14 03:09:58;;;;;;;13.73;11.07;;;17.20;99.90;;;;;;5055588;28;20029;-87
2022/05/14 03:12:24;;;;;;;13.35;10.18;;;17.20;99.90;;;;;;5038837;28;20041;-88
2022/05/14 03:14:50;;;;;;;11.07;9.95;;;17.30;99.90;;;;;;5047261;28;20041;-88
2022/05/14 03:17:17;;;;;;;12.77;10.85;;;17.10;99.90;;;;;;5044712;28;20036;-87
2022/05/14 03:19:43;;;;;;;11.57;10.48;;;17.10;99.90;;;;;;5036985;28;22603;-88
2022/05/14 03:22:09;;;;;;;13.07;10.90;;;17.30;99.90;;;;;;5087179;28;20116;-86
2022/05/14 03:24:38;;;;;;;12.25;10.48;;;17.00;99.90;;;;;;5071035;28;20025;-87
2022/05/14 03:27:05;;;;;;;11.80;9.80;;;16.90;99.90;;;;;;5057771;28;20386;-87
2022/05/14 03:29:31;;;;;;;11.13;10.02;;;17.00;99.90;;;;;;5053160;28;20470;-86
2022/05/14 03:31:57;;;;;;;11.23;10.05;;;17.10;99.90;;;;;;5053467;28;20033;-87
2022/05/14 03:34:27;;;;;;;11.90;10.23;;;17.10;99.90;;;;;;5101553;28;20135;-88
2022/05/14 03:36:53;;;;;;;11.65;10.43;;;16.70;99.90;;;;;;5033674;28;20156;-87
2022/05/14 03:39:19;;;;;;;11.32;10.23;;;16.50;99.90;;;;;;5061763;28;20031;-88
2022/05/14 03:41:46;;;;;;;11.15;10.05;;;16.60;99.90;;;;;;5061459;28;20728;-87
2022/05/14 03:44:12;;;;;;;11.70;10.15;;;16.60;99.90;;;;;;5055040;28;20013;-87
2022/05/14 03:46:38;;;;;;;10.65;9.50;;;16.70;99.90;;;;;;5070666;28;20079;-87
2022/05/14 03:49:05;;;;;;;11.68;10.45;;;16.90;99.90;;;;;;5035301;28;20386;-87
2022/05/14 03:51:31;;;;;;;11.65;10.48;;;16.90;99.90;;;;;;5034117;28;20025;-88
2022/05/14 03:53:58;;;;;;;12.15;10.73;;;16.60;99.90;;;;;;5048707;28;20508;-87
2022/05/14 03:56:23;;;;;;;11.77;10.65;;;16.40;99.90;;;;;;5085212;28;20056;-88
2022/05/14 03:58:49;;;;;;;11.95;10.70;;;16.30;99.90;;;;;;5052436;28;20485;-87
2022/05/14 04:01:15;;;;;;;12.02;10.60;;;16.10;99.90;;;;;;5055178;28;20033;-86
2022/05/14 04:03:41;;;;;;;13.77;11.45;;;16.10;99.90;;;;;;5055709;28;20222;-87
2022/05/14 04:06:07;;;;;;;11.70;10.52;;;16.10;99.90;;;;;;5054099;28;20393;-87
2022/05/14 04:08:33;;;;;;;13.05;10.82;;;16.10;99.90;;;;;;5044820;28;20021;-87
2022/05/14 04:11:00;;;;;;;12.23;10.40;;;16.00;99.90;;;;;;5042179;28;20476;-87
2022/05/14 04:13:26;;;;;;;12.98;10.63;;;16.20;99.90;;;;;;5071615;28;20040;-87
2022/05/14 04:15:52;;;;;;;13.10;10.52;;;16.30;99.90;;;;;;5057929;28;20513;-87
2022/05/14 04:18:24;;;;;;;11.90;10.70;;;16.20;99.90;;;;;;5051838;28;20021;-87
2022/05/14 04:20:53;;;;;;;11.40;10.30;;;16.30;99.90;;;;;;5052727;28;20060;-87
2022/05/14 04:23:19;;;;;;;12.43;11.20;;;16.60;99.90;;;;;;5046846;28;20021;-88
2022/05/14 04:25:44;;;;;;;12.55;11.32;;;16.60;99.90;;;;;;5036233;28;20032;-87
2022/05/14 04:28:10;;;;;;;13.57;11.60;;;16.50;99.90;;;;;;5070391;28;20028;-87
2022/05/14 04:30:35;;;;;;;12.35;11.20;;;16.70;99.90;;;;;;5064305;28;20035;-87
2022/05/14 04:33:01;;;;;;;12.40;11.10;;;16.90;99.90;;;;;;5058071;28;20033;-87
2022/05/14 04:35:27;;;;;;;12.57;11.27;;;16.80;99.90;;;;;;5083525;28;20086;-87
2022/05/14 04:37:52;;;;;;;13.00;11.30;;;16.40;99.90;;;;;;5085849;28;20417;-87
2022/05/14 04:40:18;;;;;;;11.82;10.73;;;16.40;99.90;;;;;;5071366;28;20070;-87
2022/05/14 04:42:44;;;;;;;13.27;11.48;;;16.60;99.90;;;;;;5072775;28;20024;-88
2022/05/14 04:45:10;;;;;;;13.73;11.85;;;16.40;99.90;;;;;;5059109;28;20031;-87
2022/05/14 04:47:39;;;;;;;13.30;11.18;;;16.40;99.90;;;;;;5061647;28;20406;-87
2022/05/14 04:50:06;;;;;;;12.85;11.25;;;16.50;99.90;;;;;;5052789;28;20031;-88
2022/05/14 04:52:32;;;;;;;14.73;11.65;;;16.40;99.90;;;;;;5053972;28;20029;-87
2022/05/14 04:54:57;;;;;;;15.07;10.57;;;16.30;99.90;;;;;;5052387;28;20036;-87
2022/05/14 04:57:23;;;;;;;12.50;11.25;;;15.90;99.90;;;;;;5054650;28;20473;-87
2022/05/14 04:59:49;;;;;;;14.73;11.38;;;15.80;99.90;;;;;;5060228;28;20029;-87
2022/05/14 05:04:58;;;;;;;12.27;11.00;;;15.70;99.90;;;;;;5056054;28;20501;-87
2022/05/14 05:07:24;;;;;;;12.27;11.07;;;16.10;99.90;;;;;;5054796;28;20056;-87
2022/05/14 05:09:50;;;;;;;14.88;10.93;;;16.30;99.90;;;;;;5086091;28;20401;-87
2022/05/14 05:12:16;;;;;;;14.95;11.20;;;16.40;99.90;;;;;;5053626;28;20496;-87
2022/05/14 05:14:42;;;;;;;12.75;11.40;;;16.60;99.90;;;;;;5072836;28;20040;-87
2022/05/14 05:17:08;;;;;;;12.82;11.52;;;16.50;99.90;;;;;;5041359;28;20025;-87
2022/05/14 05:19:34;;;;;;;12.88;11.55;;;16.40;99.90;;;;;;5049871;28;20437;-88
2022/05/14 05:21:59;;;;;;;13.23;11.68;;;16.40;99.90;;;;;;5033078;28;20099;-88
2022/05/14 05:24:25;;;;;;;13.45;11.82;;;16.40;99.90;;;;;;5049603;28;20020;-87
2022/05/14 05:26:55;;;;;;;13.82;11.60;;;16.40;99.90;;;;;;5062503;28;20513;-87
2022/05/14 05:29:21;;;;;;;13.57;11.68;;;16.60;99.90;;;;;;5051960;28;20035;-87
2022/05/14 05:31:47;;;;;;;12.68;11.15;;;16.40;99.90;;;;;;5036874;28;20104;-87
2022/05/14 05:34:12;;;;;;;13.40;11.90;;;16.30;99.90;;;;;;5071182;28;20406;-87
2022/05/14 05:36:38;;;;;;;12.32;11.10;;;16.30;99.90;;;;;;5052630;28;20498;-87
2022/05/14 05:39:04;;;;;;;12.45;11.15;;;16.20;99.90;;;;;;5053302;28;20025;-87
2022/05/14 05:41:30;;;;;;;12.77;11.18;;;16.30;99.90;;;;;;5059584;28;20025;-87
2022/05/14 05:43:56;;;;;;;12.75;11.40;;;16.60;99.90;;;;;;5065198;28;20037;-87
2022/05/14 05:46:21;;;;;;;13.00;11.70;;;16.90;99.90;;;;;;5065709;28;20119;-87
2022/05/14 05:48:47;;;;;;;13.48;11.57;;;17.00;99.90;;;;;;5051222;28;20033;-87
2022/05/14 05:51:13;;;;;;;12.43;11.23;;;17.10;99.90;;;;;;5062400;28;20032;-88
2022/05/14 05:59:07;;;;;;;13.63;12.23;;;17.10;99.90;;;;;;5052660;28;20163;-88
2022/05/14 06:01:33;;;;;;;13.05;11.70;;;17.00;99.90;;;;;;5083229;28;20119;-88
2022/05/14 06:03:59;;;;;;;13.38;11.98;;;17.00;99.90;;;;;;5032842;28;20505;-88
2022/05/14 06:06:25;;;;;;;16.08;13.05;;;17.00;99.90;;;;;;5061106;28;20064;-89
2022/05/14 06:08:51;;;;;;;14.55;12.18;;;16.90;99.90;;;;;;5063615;28;20013;-88
2022/05/14 06:11:17;;;;;;;13.05;11.70;;;17.20;99.90;;;;;;5053932;28;20028;-86
2022/05/14 06:13:44;;;;;;;14.63;13.18;;;17.40;99.90;;;;;;5032454;28;20449;-93
2022/05/14 06:16:14;;;;;;;14.90;12.52;;;17.40;99.90;;;;;;5063901;28;20047;-88
2022/05/14 06:18:42;;;;;;;15.18;12.75;;;17.50;99.90;;;;;;5086450;28;20033;-88
2022/05/14 06:21:09;;;;;;;14.13;12.35;;;17.50;99.90;;;;;;5053082;28;20017;-89
2022/05/14 06:23:35;;;;;;;13.90;12.50;;;17.70;99.90;;;;;;5051208;28;20017;-87
2022/05/14 06:26:00;;;;;;;16.80;13.38;;;17.90;99.90;;;;;;5052941;28;20456;-86
2022/05/14 06:28:26;;;;;;;17.73;13.75;;;18.10;99.90;;;;;;5051307;28;20039;-87
2022/05/14 06:30:52;;;;;;;19.83;13.68;;;18.10;99.90;;;;;;5056016;28;20401;-86
2022/05/14 06:33:19;;;;;;;18.90;13.50;;;18.20;99.90;;;;;;5053870;28;20079;-86
2022/05/14 06:35:45;;;;;;;15.23;13.73;;;18.40;99.90;;;;;;5056088;28;20056;-86
2022/05/14 06:38:12;;;;;;;16.50;14.00;;;18.30;99.90;;;;;;5053722;28;20033;-86
2022/05/14 06:40:39;;;;;;;16.40;14.55;;;18.30;99.90;;;;;;5053787;28;20024;-86
2022/05/14 06:43:05;;;;;;;18.88;15.40;;;18.30;99.90;;;;;;5059790;28;20021;-85
2022/05/14 06:45:31;;;;;;;16.13;14.30;;;18.30;99.90;;;;;;5059014;28;20398;-86
2022/05/14 06:47:57;;;;;;;15.77;14.23;;;18.50;99.90;;;;;;5054842;28;20029;-86
2022/05/14 06:50:29;;;;;;;16.60;14.65;;;18.60;99.90;;;;;;5055480;28;20035;-86
2022/05/14 06:52:57;;;;;;;15.93;14.00;;;18.60;99.90;;;;;;5052568;28;20048;-86
2022/05/14 06:55:25;;;;;;;15.30;13.80;;;18.60;99.90;;;;;;5055648;28;20036;-90
2022/05/14 06:57:51;;;;;;;15.40;13.88;;;18.60;99.90;;;;;;5058723;28;20024;-87
2022/05/14 07:00:18;;;;;;;15.15;13.57;;;18.60;99.90;;;;;;5057012;28;20482;-87
2022/05/14 07:02:46;;;;;;;16.05;13.73;;;18.70;99.90;;;;;;5057573;28;20032;-87
2022/05/14 07:07:57;;;;;;;14.98;13.55;;;18.90;99.90;;;;;;5055838;28;20031;-86
2022/05/14 07:10:23;;;;;;;15.95;14.30;;;18.80;99.90;;;;;;5054805;28;20111;-86
2022/05/14 07:12:49;;;;;;;16.67;13.88;;;18.80;99.90;;;;;;5089552;28;20079;-86
2022/05/14 07:15:15;;;;;;;14.98;13.45;;;18.80;99.90;;;;;;5056702;28;20476;-86
2022/05/14 07:17:41;;;;;;;14.77;13.00;;;18.90;99.90;;;;;;5057118;28;20096;-86
2022/05/14 07:20:07;;;;;;;13.70;12.35;;;18.90;99.90;;;;;;5056883;28;20520;-86
2022/05/14 07:22:33;;;;;;;14.88;13.38;;;18.80;99.90;;;;;;5053430;28;20028;-86
2022/05/14 07:24:59;;;;;;;15.23;13.63;;;18.70;99.90;;;;;;5059193;28;20040;-86
2022/05/14 07:27:24;;;;;;;14.52;13.02;;;18.70;99.90;;;;;;5056990;28;20032;-86
2022/05/14 07:29:50;;;;;;;15.00;13.40;;;18.70;99.90;;;;;;5055040;28;20032;-86
2022/05/14 07:32:18;;;;;;;15.02;12.73;;;18.70;99.90;;;;;;5055435;28;20024;-86
2022/05/14 07:34:45;;;;;;;14.95;12.52;;;18.70;99.90;;;;;;5052998;28;20202;-85
2022/05/14 07:37:27;;;;;;;14.80;12.57;;;18.80;99.90;;;;;;5057603;28;20038;-85
2022/05/14 07:40:10;;;;;;;14.48;12.98;;;18.80;99.90;;;;;;5057107;28;20028;-86
2022/05/14 07:42:43;;;;;;;13.65;12.25;;;18.90;99.90;;;;;;5056562;28;20055;-85
2022/05/14 07:45:12;;;;;;;14.50;13.00;;;18.80;99.90;;;;;;5056081;28;20024;-86
2022/05/14 07:47:39;;;;;;;13.88;12.40;;;18.90;99.90;;;;;;5055429;28;20017;-86
2022/05/14 07:50:06;;;;;;;14.45;12.40;;;18.90;99.90;;;;;;5055972;28;20036;-90
2022/05/14 07:52:31;;;;;;;15.18;13.65;;;19.10;99.90;;;;;;5052654;28;20032;-85
2022/05/14 07:54:57;;;;;;;15.07;13.55;;;19.00;99.90;;;;;;5058302;28;20394;-85
2022/05/14 07:57:23;;;;;;;14.32;12.75;;;19.00;99.90;;;;;;5056443;28;20434;-85
2022/05/14 07:59:48;;;;;;;14.02;12.63;;;18.90;99.90;;;;;;5056142;28;20055;-85
2022/05/14 08:02:27;;;;;;;13.63;12.18;;;19.10;99.90;;;;;;5052554;28;20025;-85
2022/05/14 08:04:53;;;;;;;15.88;11.43;;;19.30;99.90;;;;;;5053687;28;20017;-85
2022/05/14 08:07:19;;;;;;;13.15;10.73;;;19.30;99.90;;;;;;5055166;28;20086;-84
2022/05/14 08:09:45;;;;;;;12.90;11.63;;;19.50;99.90;;;;;;5055377;28;20027;-85
2022/05/14 08:12:11;;;;;;;13.55;11.48;;;19.60;99.90;;;;;;5054391;28;20028;-84
2022/05/14 08:14:39;;;;;;;14.75;11.75;;;19.50;99.90;;;;;;5056152;28;20107;-84
2022/05/14 08:17:07;;;;;;;15.88;11.15;;;19.50;99.90;;;;;;5055096;28;20032;-84
2022/05/14 08:19:32;;;;;;;13.02;10.35;;;19.60;99.90;;;;;;5052592;28;20040;-85
2022/05/14 08:24:42;;;;;;;14.77;10.07;;;20.00;99.90;;;;;;5057139;28;20044;-85
2022/05/14 08:27:09;;;;;;;12.70;10.13;;;20.10;99.90;;;;;;5055479;28;20502;-84
2022/05/14 08:29:36;;;;;;;11.90;10.80;;;20.10;99.90;;;;;;5055798;28;20375;-85
2022/05/14 08:32:03;;;;;;;14.02;10.48;;;20.10;99.90;;;;;;5052338;28;20029;-86
2022/05/14 08:34:29;;;;;;;11.75;10.30;;;20.10;99.90;;;;;;5068595;28;24435;-87
2022/05/14 08:36:55;;;;;;;10.18;8.45;;;20.20;99.90;;;;;;5066337;28;20048;-87
2022/05/14 08:39:22;;;;;;;9.43;8.45;;;20.40;99.90;;;;;;5055435;28;20045;-87
2022/05/14 08:41:49;;;;;;;9.90;8.70;;;20.50;99.90;;;;;;5055040;28;20033;-86
2022/05/14 08:44:19;;;;;;;8.68;7.82;;;20.50;99.90;;;;;;5054304;28;20577;-87
2022/05/14 08:46:46;;;;;;;11.30;8.07;;;20.50;99.90;;;;;;5050804;28;20123;-87
2022/05/14 08:49:31;;;;;;;9.07;7.82;;;20.60;99.90;;;;;;5056273;28;20055;-86
2022/05/14 08:51:57;;;;;;;9.90;7.22;;;20.70;99.90;;;;;;5056482;28;20219;-87
2022/05/14 08:54:23;;;;;;;8.60;7.10;;;20.80;99.90;;;;;;5055333;28;20119;-87
2022/05/14 08:56:57;;;;;;;8.73;6.30;;;20.90;99.90;;;;;;5054213;28;20044;-87
2022/05/14 08:59:39;;;;;;;9.98;6.85;;;20.80;99.90;;;;;;5055203;28;20031;-87
2022/05/14 09:02:21;;;;;;;8.98;7.00;;;20.90;99.90;;;;;;5054001;28;20020;-87
2022/05/14 09:04:49;;;;;;;9.02;6.43;;;20.90;99.90;;;;;;5037297;28;20506;-87
2022/05/14 09:07:15;;;;;;;8.70;6.55;;;21.00;99.90;;;;;;5054974;28;20028;-86
2022/05/14 09:09:52;;;;;;;9.85;6.70;;;21.20;99.90;;;;;;5055582;28;20017;-87
2022/05/14 09:12:21;;;;;;;8.45;6.47;;;21.20;99.90;;;;;;5055161;28;20070;-85
2022/05/14 09:14:54;;;;;;;9.95;6.35;;;21.30;99.90;;;;;;5053647;28;20607;-87
2022/05/14 09:17:21;;;;;;;6.85;5.72;;;21.50;99.90;;;;;;5053681;28;20028;-86
2022/05/14 09:19:50;;;;;;;9.73;5.85;;;21.80;99.90;;;;;;5051757;28;20115;-87
2022/05/14 09:22:40;;;;;;;6.47;5.13;;;22.00;99.90;;;;;;5054532;28;20083;-87
2022/05/14 09:25:20;;;;;;;7.70;5.00;;;21.90;99.90;;;;;;5096281;28;20028;-86
2022/05/14 09:27:55;;;;;;;8.15;4.47;;;22.00;99.90;;;;;;5056582;28;20035;-86
2022/05/14 09:30:40;;;;;;;5.53;3.50;;;22.20;99.90;;;;;;5053110;28;20107;-86
2022/05/14 09:33:09;;;;;;;6.32;4.30;;;22.10;99.90;;;;;;5054850;28;20055;-86
2022/05/14 09:35:35;;;;;;;5.47;4.15;;;22.30;99.90;;;;;;5054268;28;20060;-85
2022/05/14 09:38:18;;;;;;;4.63;3.80;;;22.40;99.90;;;;;;5052471;28;20020;-87
2022/05/14 09:40:44;;;;;;;7.30;3.85;;;22.50;99.90;;;;;;5036105;28;20409;-87
2022/05/14 09:43:12;;;;;;;8.45;4.38;;;22.60;99.90;;;;;;5054571;28;20432;-87
2022/05/14 09:45:41;;;;;;;5.63;3.95;;;22.50;99.90;;;;;;5053905;28;20032;-87
2022/05/14 09:48:15;;;;;;;9.35;4.40;;;22.50;99.90;;;;;;5053593;28;20514;-90
2022/05/14 09:50:41;;;;;;;5.95;3.67;;;22.60;99.90;;;;;;5054192;28;20025;-91
2022/05/14 09:53:07;;;;;;;4.45;3.45;;;22.60;99.90;;;;;;5053435;28;20046;-87
2022/05/14 09:56:09;;;;;;;6.63;3.80;;;22.60;99.90;;;;;;5050232;28;20025;-86
2022/05/14 09:58:43;;;;;;;5.88;3.60;;;22.70;99.90;;;;;;5065958;28;20040;-86
2022/05/14 10:01:18;;;;;;;4.60;3.58;;;22.70;99.90;;;;;;5064144;28;20120;-86
2022/05/14 10:04:01;;;;;;;5.78;3.75;;;22.80;99.90;;;;;;5055451;28;20074;-86
2022/05/14 10:06:49;;;;;;;4.75;3.10;;;22.90;99.90;;;;;;5052296;28;20404;-87
2022/05/14 10:09:28;;;;;;;5.28;3.75;;;23.10;99.90;;;;;;5055635;28;20028;-85
2022/05/14 10:12:18;;;;;;;4.75;3.50;;;23.00;99.90;;;;;;5061754;28;20448;-86
2022/05/14 10:15:08;;;;;;;8.77;3.90;;;23.00;99.90;;;;;;5058015;28;20024;-85
2022/05/14 10:17:52;;;;;;;5.72;3.88;;;23.10;99.90;;;;;;5057881;28;20591;-87
2022/05/14 10:20:32;;;;;;;6.45;3.60;;;23.00;99.90;;;;;;5056376;28;20024;-86
2022/05/14 10:29:32;;;;;;;6.03;3.53;;;23.40;99.90;;;;;;5032634;28;20036;-88
2022/05/14 10:31:59;;;;;;;7.38;4.00;;;23.50;99.90;;;;;;5016094;28;20025;-86
2022/05/14 10:34:48;;;;;;;4.57;3.72;;;23.60;99.90;;;;;;5031871;28;20053;-86
2022/05/14 10:37:32;;;;;;;4.85;3.75;;;23.90;99.90;;;;;;5032671;28;20522;-86
2022/05/14 10:40:21;;;;;;;6.88;3.88;;;23.70;99.90;;;;;;5033330;28;20033;-87
2022/05/14 10:42:52;;;;;;;6.43;5.10;;;23.70;99.90;;;;;;5032550;28;20087;-86
2022/05/14 10:45:24;;;;;;;5.50;4.25;;;23.60;99.90;;;;;;5032166;28;20029;-85
2022/05/14 10:48:07;;;;;;;5.20;3.92;;;23.50;99.90;;;;;;5032566;28;20042;-88
2022/05/14 10:50:33;;;;;;;7.30;4.47;;;23.40;99.90;;;;;;5017181;28;20541;-88
2022/05/14 10:52:59;;;;;;;4.47;3.67;;;23.60;99.90;;;;;;5016749;28;20117;-89
2022/05/14 10:55:51;;;;;;;7.35;4.07;;;23.90;99.90;;;;;;5034331;28;20034;-92
2022/05/14 10:58:36;;;;;;;3.90;3.40;;;24.10;99.90;;;;;;5034192;28;20028;-89
2022/05/14 11:01:06;;;;;;;5.03;3.90;;;24.10;99.90;;;;;;5083488;28;20409;-84
2022/05/14 11:03:36;;;;;;;6.45;4.03;;;24.20;99.90;;;;;;5057021;28;20025;-85
2022/05/14 11:06:01;;;;;;;6.50;5.80;;;24.40;99.90;;;;;;5057684;28;20059;-87
2022/05/14 11:08:35;;;;;;;5.88;4.28;;;24.60;99.90;;;;;;5056287;28;20052;-88
2022/05/14 11:11:06;;;;;;;3.92;3.17;;;24.70;99.90;;;;;;5054994;28;20059;-87
2022/05/14 11:13:34;;;;;;;3.22;2.70;;;24.90;99.90;;;;;;5053339;28;20052;-86
2022/05/14 11:16:13;;;;;;;4.60;3.25;;;24.70;99.90;;;;;;5090954;28;20033;-86
2022/05/14 11:18:48;;;;;;;8.88;6.07;;;24.70;99.90;;;;;;5088529;28;20029;-86
2022/05/14 11:21:15;;;;;;;13.77;8.20;;;24.70;99.90;;;;;;5055846;28;20025;-86
2022/05/14 11:23:51;;;;;;;4.18;3.40;;;24.70;99.90;;;;;;5056822;28;20029;-85
2022/05/14 11:26:17;;;;;;;5.88;3.85;;;24.70;99.90;;;;;;5055120;28;20507;-86
2022/05/14 11:28:44;;;;;;;3.83;3.13;;;25.00;99.90;;;;;;5052781;28;20032;-86
2022/05/14 11:31:14;;;;;;;5.15;3.40;;;24.90;99.90;;;;;;5057224;28;20104;-85
2022/05/14 11:33:41;;;;;;;4.50;2.80;;;25.10;99.90;;;;;;5055443;28;20108;-86
2022/05/14 11:36:12;;;;;;;10.85;4.00;;;25.10;99.90;;;;;;5055811;28;20029;-86
2022/05/14 11:38:41;;;;;;;4.50;3.50;;;25.30;99.90;;;;;;5056483;28;20021;-86
2022/05/14 11:41:26;;;;;;;6.57;3.88;;;25.40;99.90;;;;;;5055776;28;20135;-86
2022/05/14 11:43:53;;;;;;;5.63;3.10;;;25.50;99.90;;;;;;5037032;28;20504;-85
2022/05/14 11:46:19;;;;;;;3.55;3.03;;;25.80;99.90;;;;;;5055080;28;20171;-86
2022/05/14 11:49:06;;;;;;;5.07;2.95;;;26.10;99.90;;;;;;5057031;28;20135;-85
2022/05/14 11:51:50;;;;;;;4.20;2.88;;;26.30;99.90;;;;;;5056074;28;20534;-86
2022/05/14 11:54:37;;;;;;;6.47;2.88;;;27.00;99.90;;;;;;5055956;28;20052;-86
2022/05/14 11:57:17;;;;;;;3.83;2.88;;;27.40;99.90;;;;;;5055943;28;20124;-86
2022/05/14 12:00:00;;;;;;;3.55;2.47;;;28.00;99.90;;;;;;5055926;28;20036;-86
2022/05/14 12:02:37;;;;;;;4.13;2.97;;;28.40;99.90;;;;;;5054337;28;20032;-86
2022/05/14 12:05:07;;;;;;;4.50;2.80;;;28.80;99.90;;;;;;5052906;28;20035;-86
2022/05/14 12:08:18;;;;;;;4.38;2.75;;;28.70;99.90;;;;;;5051303;28;20025;-87
2022/05/14 12:11:14;;;;;;;4.03;2.53;;;28.70;99.90;;;;;;4998284;28;20120;-86
2022/05/14 12:13:50;;;;;;;3.15;2.60;;;28.80;99.90;;;;;;5014110;28;20021;-86
2022/05/14 12:16:16;;;;;;;5.32;2.70;;;29.40;99.90;;;;;;5027626;28;20045;-86
2022/05/14 12:18:43;;;;;;;3.60;2.42;;;29.50;99.90;;;;;;5007681;28;20033;-86
2022/05/14 12:21:10;;;;;;;2.90;2.47;;;29.20;99.90;;;;;;5017115;28;20044;-86
2022/05/14 12:23:36;;;;;;;4.95;2.60;;;29.30;99.90;;;;;;5019237;28;20014;-86
2022/05/14 12:26:05;;;;;;;7.97;2.85;;;29.40;99.90;;;;;;5018152;28;20056;-86
2022/05/14 12:28:34;;;;;;;6.15;2.97;;;29.50;99.90;;;;;;5026226;28;20033;-86
2022/05/14 12:33:56;;;;;;;2.75;2.38;;;29.90;99.90;;;;;;5024038;28;20049;-86
2022/05/14 12:36:24;;;;;;;4.13;2.42;;;30.10;99.90;;;;;;5018917;28;20034;-87
2022/05/14 12:38:50;;;;;;;4.47;2.45;;;30.50;99.90;;;;;;5018899;28;20076;-86
2022/05/14 12:41:41;;;;;;;3.40;2.30;;;30.40;99.90;;;;;;5023968;28;20041;-86
2022/05/14 12:44:38;;;;;;;4.50;2.88;;;30.90;99.90;;;;;;5049533;28;20033;-86
2022/05/14 12:47:05;;;;;;;4.63;2.50;;;30.90;99.90;;;;;;5030223;28;20056;-87
2022/05/14 12:49:41;;;;;;;4.47;2.63;;;30.80;99.90;;;;;;5051900;28;20029;-86
2022/05/14 12:52:13;;;;;;;3.10;2.60;;;31.80;99.90;;;;;;5051801;28;20029;-86
2022/05/14 12:54:57;;;;;;;4.53;2.53;;;31.30;99.90;;;;;;5037777;28;20060;-86
2022/05/14 12:57:24;;;;;;;4.60;3.00;;;31.00;99.90;;;;;;5037635;28;20088;-86
2022/05/14 12:59:51;;;;;;;4.03;2.67;;;31.10;99.90;;;;;;5037819;28;20026;-86
2022/05/14 13:02:22;;;;;;;5.82;2.70;;;31.20;99.90;;;;;;5037175;28;20025;-86
2022/05/14 13:05:12;;;;;;;7.80;2.75;;;31.00;99.90;;;;;;5045892;28;20060;-86
2022/05/14 13:07:50;;;;;;;4.15;2.58;;;31.50;99.90;;;;;;5034559;28;20079;-86
2022/05/14 13:10:22;;;;;;;3.35;2.53;;;30.80;99.90;;;;;;5049112;28;20029;-86
2022/05/14 13:13:08;;;;;;;4.78;2.63;;;30.70;99.90;;;;;;5047544;28;20032;-86
2022/05/14 13:15:40;;;;;;;4.18;2.50;;;30.90;99.90;;;;;;5037534;28;20045;-86